sensor_id;sensor_type;location;lat;lon;timestamp;temperature;humidity
29211;DHT22;16250;49.932;10.980;2022-11-20T00:01:13;-1.30;99.90
29211;DHT22;16250;49.932;10.980;2022-11-20T00:03:39;-1.40;99.90
29211;DHT22;16250;49.932;10.980;2022-11-20T00:06:15;-1.40;99.90
29211;DHT22;16250;49.932;10.980;2022-11-20T00:08:41;-1.50;99.90
29211;DHT22;16250;49.932;10.980;2022-11-20T00:13:34;-1.40;99.90
29211;DHT22;16250;49.932;10.980;2022-11-20T00:16:01;-1.40;99.90
29211;DHT22;16250;49.932;10.980;2022-11-20T00:18:27;-1.30;99.90
29211;DHT22;16250;49.932;10.980;2022-11-20T00:20:53;-1.30;99.90
29211;DHT22;16250;49.932;10.980;2022-11-20T00:23:19;-1.40;99.90
29211;DHT22;16250;49.932;10.980;2022-11-20T00:25:45;-1.40;99.90
29211;DHT22;16250;49.932;10.980;2022-11-20T00:28:11;-1.30;99.90
29211;DHT22;16250;49.932;10.980;2022-11-20T00:30:36;-1.30;99.90
29211;DHT22;16250;49.932;10.980;2022-11-20T00:33:02;-1.20;99.90
29211;DHT22;16250;49.932;10.980;2022-11-20T00:35:28;-1.20;99.90
29211;DHT22;16250;49.932;10.980;2022-11-20T00:37:53;-1.40;99.90
29211;DHT22;16250;49.932;10.980;2022-11-20T00:40:19;-1.60;99.90
29211;DHT22;16250;49.932;10.980;2022-11-20T00:42:44;-1.70;99.90
29211;DHT22;16250;49.932;10.980;2022-11-20T00:45:10;-1.60;99.90
29211;DHT22;16250;49.932;10.980;2022-11-20T00:47:35;-1.70;99.90
29211;DHT22;16250;49.932;10.980;2022-11-20T00:50:01;-1.60;99.90
29211;DHT22;16250;49.932;10.980;2022-11-20T00:52:26;-1.60;99.90
29211;DHT22;16250;49.932;10.980;2022-11-20T00:54:52;-1.50;99.90
29211;DHT22;16250;49.932;10.980;2022-11-20T00:57:17;-1.60;99.90
29211;DHT22;16250;49.932;10.980;2022-11-20T00:59:43;-1.80;99.90
29211;DHT22;16250;49.932;10.980;2022-11-20T01:02:08;-1.80;99.90
29211;DHT22;16250;49.932;10.980;2022-11-20T01:04:34;-1.90;99.90
29211;DHT22;16250;49.932;10.980;2022-11-20T01:06:59;-1.80;99.90
29211;DHT22;16250;49.932;10.980;2022-11-20T01:09:25;-1.90;99.90
29211;DHT22;16250;49.932;10.980;2022-11-20T01:11:50;-2.00;99.90
29211;DHT22;16250;49.932;10.980;2022-11-20T01:14:19;-1.90;99.90
29211;DHT22;16250;49.932;10.980;2022-11-20T01:16:47;-1.90;99.90
29211;DHT22;16250;49.932;10.980;2022-11-20T01:19:16;-1.80;99.90
29211;DHT22;16250;49.932;10.980;2022-11-20T01:21:43;-1.70;99.90
29211;DHT22;16250;49.932;10.980;2022-11-20T01:24:14;-1.60;99.90
29211;DHT22;16250;49.932;10.980;2022-11-20T01:26:41;-1.50;99.90
29211;DHT22;16250;49.932;10.980;2022-11-20T01:29:16;-1.50;99.90
29211;DHT22;16250;49.932;10.980;2022-11-20T01:31:43;-1.60;99.90
29211;DHT22;16250;49.932;10.980;2022-11-20T01:34:17;-1.50;99.90
29211;DHT22;16250;49.932;10.980;2022-11-20T01:36:43;-1.50;99.90
29211;DHT22;16250;49.932;10.980;2022-11-20T01:39:18;-1.60;99.90
29211;DHT22;16250;49.932;10.980;2022-11-20T01:41:44;-1.50;99.90
29211;DHT22;16250;49.932;10.980;2022-11-20T01:47:16;-1.60;99.90
29211;DHT22;16250;49.932;10.980;2022-11-20T01:49:56;-1.40;99.90
29211;DHT22;16250;49.932;10.980;2022-11-20T01:52:27;-1.30;99.90
29211;DHT22;16250;49.932;10.980;2022-11-20T01:54:59;-1.50;99.90
29211;DHT22;16250;49.932;10.980;2022-11-20T01:57:28;-1.40;99.90
29211;DHT22;16250;49.932;10.980;2022-11-20T02:00:02;-1.50;99.90
29211;DHT22;16250;49.932;10.980;2022-11-20T02:02:28;-1.50;99.90
29211;DHT22;16250;49.932;10.980;2022-11-20T02:04:57;-1.60;99.90
29211;DHT22;16250;49.932;10.980;2022-11-20T02:07:26;-1.50;99.90
29211;DHT22;16250;49.932;10.980;2022-11-20T02:09:53;-1.50;99.90
29211;DHT22;16250;49.932;10.980;2022-11-20T02:12:18;-1.50;99.90
29211;DHT22;16250;49.932;10.980;2022-11-20T02:15:02;-1.60;99.90
29211;DHT22;16250;49.932;10.980;2022-11-20T02:17:28;-1.40;99.90
29211;DHT22;16250;49.932;10.980;2022-11-20T02:19:54;-1.40;99.90
29211;DHT22;16250;49.932;10.980;2022-11-20T02:22:27;-1.50;99.90
29211;DHT22;16250;49.932;10.980;2022-11-20T02:24:54;-1.40;99.90
29211;DHT22;16250;49.932;10.980;2022-11-20T02:27:20;-1.30;99.90
29211;DHT22;16250;49.932;10.980;2022-11-20T02:29:53;-1.40;99.90
29211;DHT22;16250;49.932;10.980;2022-11-20T02:32:32;-1.30;99.90
29211;DHT22;16250;49.932;10.980;2022-11-20T02:35:10;-1.40;99.90
29211;DHT22;16250;49.932;10.980;2022-11-20T02:37:38;-1.50;99.90
29211;DHT22;16250;49.932;10.980;2022-11-20T02:40:06;-1.50;99.90
29211;DHT22;16250;49.932;10.980;2022-11-20T02:42:31;-1.50;99.90
29211;DHT22;16250;49.932;10.980;2022-11-20T02:44:57;-1.40;99.90
29211;DHT22;16250;49.932;10.980;2022-11-20T02:47:22;-1.40;99.90
29211;DHT22;16250;49.932;10.980;2022-11-20T02:49:48;-1.50;99.90
29211;DHT22;16250;49.932;10.980;2022-11-20T02:52:13;-1.50;99.90
29211;DHT22;16250;49.932;10.980;2022-11-20T02:54:39;-1.40;99.90
29211;DHT22;16250;49.932;10.980;2022-11-20T02:57:04;-1.20;99.90
29211;DHT22;16250;49.932;10.980;2022-11-20T02:59:30;-1.20;99.90
29211;DHT22;16250;49.932;10.980;2022-11-20T03:01:55;-1.20;99.90
29211;DHT22;16250;49.932;10.980;2022-11-20T03:04:21;-1.10;99.90
29211;DHT22;16250;49.932;10.980;2022-11-20T03:06:46;-1.00;99.90
29211;DHT22;16250;49.932;10.980;2022-11-20T03:09:12;-1.10;99.90
29211;DHT22;16250;49.932;10.980;2022-11-20T03:11:38;-1.20;99.90
29211;DHT22;16250;49.932;10.980;2022-11-20T03:14:04;-1.30;99.90
29211;DHT22;16250;49.932;10.980;2022-11-20T03:16:31;-1.30;99.90
29211;DHT22;16250;49.932;10.980;2022-11-20T03:18:56;-1.30;99.90
29211;DHT22;16250;49.932;10.980;2022-11-20T03:21:22;-1.30;99.90
29211;DHT22;16250;49.932;10.980;2022-11-20T03:23:48;-1.40;99.90
29211;DHT22;16250;49.932;10.980;2022-11-20T03:26:19;-1.30;99.90
29211;DHT22;16250;49.932;10.980;2022-11-20T03:29:00;-1.20;99.90
29211;DHT22;16250;49.932;10.980;2022-11-20T03:31:37;-1.10;99.90
29211;DHT22;16250;49.932;10.980;2022-11-20T03:34:03;-1.30;99.90
29211;DHT22;16250;49.932;10.980;2022-11-20T03:36:29;-1.00;99.90
29211;DHT22;16250;49.932;10.980;2022-11-20T03:38:56;-0.90;99.90
29211;DHT22;16250;49.932;10.980;2022-11-20T03:41:28;-1.00;99.90
29211;DHT22;16250;49.932;10.980;2022-11-20T03:43:56;-1.10;99.90
29211;DHT22;16250;49.932;10.980;2022-11-20T03:46:22;-1.00;99.90
29211;DHT22;16250;49.932;10.980;2022-11-20T03:48:48;-1.00;99.90
29211;DHT22;16250;49.932;10.980;2022-11-20T03:51:18;-1.00;99.90
29211;DHT22;16250;49.932;10.980;2022-11-20T03:53:46;-0.90;99.90
29211;DHT22;16250;49.932;10.980;2022-11-20T03:56:13;-0.90;99.90
29211;DHT22;16250;49.932;10.980;2022-11-20T03:58:40;-0.90;99.90
29211;DHT22;16250;49.932;10.980;2022-11-20T04:01:14;-1.00;99.90
29211;DHT22;16250;49.932;10.980;2022-11-20T04:03:41;-1.20;99.90
29211;DHT22;16250;49.932;10.980;2022-11-20T04:06:09;-1.20;99.90
29211;DHT22;16250;49.932;10.980;2022-11-20T04:08:36;-1.30;99.90
29211;DHT22;16250;49.932;10.980;2022-11-20T04:13:41;-1.40;99.90
29211;DHT22;16250;49.932;10.980;2022-11-20T04:16:08;-1.50;99.90
29211;DHT22;16250;49.932;10.980;2022-11-20T04:18:34;-1.40;99.90
29211;DHT22;16250;49.932;10.980;2022-11-20T04:21:00;-1.40;99.90
29211;DHT22;16250;49.932;10.980;2022-11-20T04:23:26;-1.30;99.90
29211;DHT22;16250;49.932;10.980;2022-11-20T04:25:52;-1.30;99.90
29211;DHT22;16250;49.932;10.980;2022-11-20T04:28:18;-1.10;99.90
29211;DHT22;16250;49.932;10.980;2022-11-20T04:30:44;-1.10;99.90
29211;DHT22;16250;49.932;10.980;2022-11-20T04:33:09;-1.00;99.90
29211;DHT22;16250;49.932;10.980;2022-11-20T04:35:35;-1.10;99.90
29211;DHT22;16250;49.932;10.980;2022-11-20T04:38:01;-1.20;99.90
29211;DHT22;16250;49.932;10.980;2022-11-20T04:40:30;-1.20;99.90
29211;DHT22;16250;49.932;10.980;2022-11-20T04:42:56;-1.30;99.90
29211;DHT22;16250;49.932;10.980;2022-11-20T04:45:22;-1.30;99.90
29211;DHT22;16250;49.932;10.980;2022-11-20T04:47:48;-1.30;99.90
29211;DHT22;16250;49.932;10.980;2022-11-20T04:50:14;-1.20;99.90
29211;DHT22;16250;49.932;10.980;2022-11-20T04:52:39;-1.10;99.90
29211;DHT22;16250;49.932;10.980;2022-11-20T04:55:05;-1.10;99.90
29211;DHT22;16250;49.932;10.980;2022-11-20T04:57:31;-1.10;99.90
29211;DHT22;16250;49.932;10.980;2022-11-20T04:59:57;-1.10;99.90
29211;DHT22;16250;49.932;10.980;2022-11-20T05:02:23;-1.10;99.90
29211;DHT22;16250;49.932;10.980;2022-11-20T05:04:48;-1.00;99.90
29211;DHT22;16250;49.932;10.980;2022-11-20T05:07:14;-1.00;99.90
29211;DHT22;16250;49.932;10.980;2022-11-20T05:09:39;-1.00;99.90
29211;DHT22;16250;49.932;10.980;2022-11-20T05:12:07;-0.90;99.90
29211;DHT22;16250;49.932;10.980;2022-11-20T05:14:33;-0.80;99.90
29211;DHT22;16250;49.932;10.980;2022-11-20T05:16:59;-0.90;99.90
29211;DHT22;16250;49.932;10.980;2022-11-20T05:19:24;-0.90;99.90
29211;DHT22;16250;49.932;10.980;2022-11-20T05:21:50;-0.90;99.90
29211;DHT22;16250;49.932;10.980;2022-11-20T05:24:15;-0.90;99.90
29211;DHT22;16250;49.932;10.980;2022-11-20T05:26:41;-0.70;99.90
29211;DHT22;16250;49.932;10.980;2022-11-20T05:29:06;-0.70;99.90
29211;DHT22;16250;49.932;10.980;2022-11-20T05:31:32;-0.70;99.90
29211;DHT22;16250;49.932;10.980;2022-11-20T05:33:57;-0.80;99.90
29211;DHT22;16250;49.932;10.980;2022-11-20T05:36:23;-0.80;99.90
29211;DHT22;16250;49.932;10.980;2022-11-20T05:38:49;-0.80;99.90
29211;DHT22;16250;49.932;10.980;2022-11-20T05:41:17;-1.00;99.90
29211;DHT22;16250;49.932;10.980;2022-11-20T05:43:44;-0.80;99.90
29211;DHT22;16250;49.932;10.980;2022-11-20T05:46:12;-0.80;99.90
29211;DHT22;16250;49.932;10.980;2022-11-20T05:48:39;-0.70;99.90
29211;DHT22;16250;49.932;10.980;2022-11-20T05:51:07;-0.70;99.90
29211;DHT22;16250;49.932;10.980;2022-11-20T05:53:34;-0.80;99.90
29211;DHT22;16250;49.932;10.980;2022-11-20T05:56:01;-0.70;99.90
29211;DHT22;16250;49.932;10.980;2022-11-20T05:58:27;-0.70;99.90
29211;DHT22;16250;49.932;10.980;2022-11-20T06:00:53;-0.70;99.90
29211;DHT22;16250;49.932;10.980;2022-11-20T06:03:19;-0.70;99.90
29211;DHT22;16250;49.932;10.980;2022-11-20T06:05:44;-0.80;99.90
29211;DHT22;16250;49.932;10.980;2022-11-20T06:08:10;-0.90;99.90
29211;DHT22;16250;49.932;10.980;2022-11-20T06:10:35;-0.90;99.90
29211;DHT22;16250;49.932;10.980;2022-11-20T06:13:01;-0.80;99.90
29211;DHT22;16250;49.932;10.980;2022-11-20T06:15:26;-0.70;99.90
29211;DHT22;16250;49.932;10.980;2022-11-20T06:17:53;-0.60;99.90
29211;DHT22;16250;49.932;10.980;2022-11-20T06:20:19;-0.60;99.90
29211;DHT22;16250;49.932;10.980;2022-11-20T06:22:45;-0.60;99.90
29211;DHT22;16250;49.932;10.980;2022-11-20T06:25:11;-0.50;99.90
29211;DHT22;16250;49.932;10.980;2022-11-20T06:27:36;-0.50;99.90
29211;DHT22;16250;49.932;10.980;2022-11-20T06:30:03;-0.70;99.90
29211;DHT22;16250;49.932;10.980;2022-11-20T06:32:28;-0.70;99.90
29211;DHT22;16250;49.932;10.980;2022-11-20T06:34:54;-0.70;99.90
29211;DHT22;16250;49.932;10.980;2022-11-20T06:37:19;-0.70;99.90
29211;DHT22;16250;49.932;10.980;2022-11-20T06:39:45;-0.60;99.90
29211;DHT22;16250;49.932;10.980;2022-11-20T06:42:10;-0.50;99.90
29211;DHT22;16250;49.932;10.980;2022-11-20T06:44:36;-0.60;99.90
29211;DHT22;16250;49.932;10.980;2022-11-20T06:47:01;-0.60;99.90
29211;DHT22;16250;49.932;10.980;2022-11-20T06:49:27;-0.50;99.90
29211;DHT22;16250;49.932;10.980;2022-11-20T06:51:52;-0.50;99.90
29211;DHT22;16250;49.932;10.980;2022-11-20T06:54:18;-0.40;99.90
29211;DHT22;16250;49.932;10.980;2022-11-20T06:56:47;-0.40;99.90
29211;DHT22;16250;49.932;10.980;2022-11-20T06:59:13;-0.50;99.90
29211;DHT22;16250;49.932;10.980;2022-11-20T07:01:38;-0.40;99.90
29211;DHT22;16250;49.932;10.980;2022-11-20T07:04:04;-0.50;99.90
29211;DHT22;16250;49.932;10.980;2022-11-20T07:06:30;-0.70;99.90
29211;DHT22;16250;49.932;10.980;2022-11-20T07:08:55;-0.70;99.90
29211;DHT22;16250;49.932;10.980;2022-11-20T07:11:21;-0.50;99.90
29211;DHT22;16250;49.932;10.980;2022-11-20T07:13:46;-0.30;99.90
29211;DHT22;16250;49.932;10.980;2022-11-20T07:16:12;-0.40;99.90
29211;DHT22;16250;49.932;10.980;2022-11-20T07:18:38;-0.40;99.90
29211;DHT22;16250;49.932;10.980;2022-11-20T07:21:06;-0.60;99.90
29211;DHT22;16250;49.932;10.980;2022-11-20T07:23:32;-0.60;99.90
29211;DHT22;16250;49.932;10.980;2022-11-20T07:25:57;-0.60;99.90
29211;DHT22;16250;49.932;10.980;2022-11-20T07:28:23;-0.60;99.90
29211;DHT22;16250;49.932;10.980;2022-11-20T07:30:53;-0.60;99.90
29211;DHT22;16250;49.932;10.980;2022-11-20T07:33:19;-0.50;99.90
29211;DHT22;16250;49.932;10.980;2022-11-20T07:35:45;-0.50;99.90
29211;DHT22;16250;49.932;10.980;2022-11-20T07:38:10;-0.60;99.90
29211;DHT22;16250;49.932;10.980;2022-11-20T07:40:36;-0.60;99.90
29211;DHT22;16250;49.932;10.980;2022-11-20T07:43:02;-0.60;99.90
29211;DHT22;16250;49.932;10.980;2022-11-20T07:45:27;-0.50;99.90
29211;DHT22;16250;49.932;10.980;2022-11-20T07:47:53;-0.40;99.90
29211;DHT22;16250;49.932;10.980;2022-11-20T07:50:19;-0.40;99.90
29211;DHT22;16250;49.932;10.980;2022-11-20T07:52:45;-0.40;99.90
29211;DHT22;16250;49.932;10.980;2022-11-20T07:55:11;-0.40;99.90
29211;DHT22;16250;49.932;10.980;2022-11-20T07:57:37;-0.50;99.90
29211;DHT22;16250;49.932;10.980;2022-11-20T08:00:03;-0.40;99.90
29211;DHT22;16250;49.932;10.980;2022-11-20T08:02:29;-0.50;99.90
29211;DHT22;16250;49.932;10.980;2022-11-20T08:04:55;-0.50;99.90
29211;DHT22;16250;49.932;10.980;2022-11-20T08:07:20;-0.30;99.90
29211;DHT22;16250;49.932;10.980;2022-11-20T08:09:46;-0.10;99.90
29211;DHT22;16250;49.932;10.980;2022-11-20T08:12:21;-0.20;99.90
29211;DHT22;16250;49.932;10.980;2022-11-20T08:15:06;-0.30;99.90
29211;DHT22;16250;49.932;10.980;2022-11-20T08:17:32;-0.30;99.90
29211;DHT22;16250;49.932;10.980;2022-11-20T08:19:57;-0.20;99.90
29211;DHT22;16250;49.932;10.980;2022-11-20T08:22:23;-0.10;99.90
29211;DHT22;16250;49.932;10.980;2022-11-20T08:24:48;-0.10;99.90
29211;DHT22;16250;49.932;10.980;2022-11-20T08:27:14;0.10;99.90
29211;DHT22;16250;49.932;10.980;2022-11-20T08:29:40;0.30;99.90
29211;DHT22;16250;49.932;10.980;2022-11-20T08:32:05;0.50;99.90
29211;DHT22;16250;49.932;10.980;2022-11-20T08:34:31;0.30;99.90
29211;DHT22;16250;49.932;10.980;2022-11-20T08:36:56;0.10;99.90
29211;DHT22;16250;49.932;10.980;2022-11-20T08:39:22;0.00;99.90
29211;DHT22;16250;49.932;10.980;2022-11-20T08:41:47;-0.10;99.90
29211;DHT22;16250;49.932;10.980;2022-11-20T08:44:13;0.00;99.90
29211;DHT22;16250;49.932;10.980;2022-11-20T08:46:40;0.00;99.90
29211;DHT22;16250;49.932;10.980;2022-11-20T08:49:08;0.10;99.90
29211;DHT22;16250;49.932;10.980;2022-11-20T08:51:35;0.10;99.90
29211;DHT22;16250;49.932;10.980;2022-11-20T08:54:01;0.10;99.90
29211;DHT22;16250;49.932;10.980;2022-11-20T08:56:27;0.10;99.90
29211;DHT22;16250;49.932;10.980;2022-11-20T08:58:53;0.10;99.90
29211;DHT22;16250;49.932;10.980;2022-11-20T09:01:19;0.10;99.90
29211;DHT22;16250;49.932;10.980;2022-11-20T09:03:46;0.20;99.90
29211;DHT22;16250;49.932;10.980;2022-11-20T09:06:12;0.30;99.90
29211;DHT22;16250;49.932;10.980;2022-11-20T09:08:37;0.50;99.90
29211;DHT22;16250;49.932;10.980;2022-11-20T09:11:03;0.60;99.90
29211;DHT22;16250;49.932;10.980;2022-11-20T09:13:29;0.60;99.90
29211;DHT22;16250;49.932;10.980;2022-11-20T09:15:56;0.60;99.90
29211;DHT22;16250;49.932;10.980;2022-11-20T09:18:22;0.70;99.90
29211;DHT22;16250;49.932;10.980;2022-11-20T09:20:48;0.80;99.90
29211;DHT22;16250;49.932;10.980;2022-11-20T09:23:14;0.80;99.90
29211;DHT22;16250;49.932;10.980;2022-11-20T09:25:40;0.60;99.90
29211;DHT22;16250;49.932;10.980;2022-11-20T09:28:05;0.60;99.90
29211;DHT22;16250;49.932;10.980;2022-11-20T09:30:31;0.60;99.90
29211;DHT22;16250;49.932;10.980;2022-11-20T09:32:57;0.60;99.90
29211;DHT22;16250;49.932;10.980;2022-11-20T09:35:22;0.50;99.90
29211;DHT22;16250;49.932;10.980;2022-11-20T09:37:48;0.40;99.90
29211;DHT22;16250;49.932;10.980;2022-11-20T09:42:56;0.40;99.90
29211;DHT22;16250;49.932;10.980;2022-11-20T09:48:26;0.40;99.90
29211;DHT22;16250;49.932;10.980;2022-11-20T09:51:05;0.40;99.90
29211;DHT22;16250;49.932;10.980;2022-11-20T09:56:20;0.50;99.90
29211;DHT22;16250;49.932;10.980;2022-11-20T09:58:51;0.50;99.90
29211;DHT22;16250;49.932;10.980;2022-11-20T10:01:19;0.50;99.90
29211;DHT22;16250;49.932;10.980;2022-11-20T10:04:09;0.50;99.90
29211;DHT22;16250;49.932;10.980;2022-11-20T10:09:35;0.90;99.90
29211;DHT22;16250;49.932;10.980;2022-11-20T10:23:28;0.60;99.90
29211;DHT22;16250;49.932;10.980;2022-11-20T10:26:21;0.80;99.90
29211;DHT22;16250;49.932;10.980;2022-11-20T10:31:37;1.20;99.90
29211;DHT22;16250;49.932;10.980;2022-11-20T10:34:07;1.10;99.90
29211;DHT22;16250;49.932;10.980;2022-11-20T10:36:49;1.20;99.90
29211;DHT22;16250;49.932;10.980;2022-11-20T10:39:42;1.10;99.90
29211;DHT22;16250;49.932;10.980;2022-11-20T10:42:14;1.10;99.90
29211;DHT22;16250;49.932;10.980;2022-11-20T10:44:48;1.20;99.90
29211;DHT22;16250;49.932;10.980;2022-11-20T10:47:27;1.10;99.90
29211;DHT22;16250;49.932;10.980;2022-11-20T10:49:56;1.20;99.90
29211;DHT22;16250;49.932;10.980;2022-11-20T10:52:47;1.30;99.90
29211;DHT22;16250;49.932;10.980;2022-11-20T10:55:33;1.30;99.90
29211;DHT22;16250;49.932;10.980;2022-11-20T11:00:50;0.90;99.90
29211;DHT22;16250;49.932;10.980;2022-11-20T11:03:30;1.10;99.90
29211;DHT22;16250;49.932;10.980;2022-11-20T11:08:39;1.20;99.90
29211;DHT22;16250;49.932;10.980;2022-11-20T11:11:25;1.30;99.90
29211;DHT22;16250;49.932;10.980;2022-11-20T11:13:52;1.30;99.90
29211;DHT22;16250;49.932;10.980;2022-11-20T11:16:24;1.30;99.90
29211;DHT22;16250;49.932;10.980;2022-11-20T11:18:50;1.60;99.90
29211;DHT22;16250;49.932;10.980;2022-11-20T11:21:24;1.50;99.90
29211;DHT22;16250;49.932;10.980;2022-11-20T11:23:59;1.50;99.90
29211;DHT22;16250;49.932;10.980;2022-11-20T11:26:25;1.40;99.90
29211;DHT22;16250;49.932;10.980;2022-11-20T11:28:54;1.40;99.90
29211;DHT22;16250;49.932;10.980;2022-11-20T11:31:28;1.60;99.90
29211;DHT22;16250;49.932;10.980;2022-11-20T11:34:15;1.90;99.90
29211;DHT22;16250;49.932;10.980;2022-11-20T11:36:41;1.90;99.90
29211;DHT22;16250;49.932;10.980;2022-11-20T11:39:13;2.10;99.90
29211;DHT22;16250;49.932;10.980;2022-11-20T11:41:39;2.60;99.90
29211;DHT22;16250;49.932;10.980;2022-11-20T11:44:32;2.60;99.90
29211;DHT22;16250;49.932;10.980;2022-11-20T11:47:30;2.60;99.90
29211;DHT22;16250;49.932;10.980;2022-11-20T11:55:14;2.00;99.90
29211;DHT22;16250;49.932;10.980;2022-11-20T11:57:54;1.90;99.90
29211;DHT22;16250;49.932;10.980;2022-11-20T12:00:22;2.00;99.90
29211;DHT22;16250;49.932;10.980;2022-11-20T12:03:17;2.00;99.90
29211;DHT22;16250;49.932;10.980;2022-11-20T12:05:47;2.50;99.90
29211;DHT22;16250;49.932;10.980;2022-11-20T12:11:18;2.40;99.90
29211;DHT22;16250;49.932;10.980;2022-11-20T12:13:55;2.40;99.90
29211;DHT22;16250;49.932;10.980;2022-11-20T12:16:24;2.30;99.90
29211;DHT22;16250;49.932;10.980;2022-11-20T12:18:51;2.20;99.90
29211;DHT22;16250;49.932;10.980;2022-11-20T12:21:34;2.20;99.90
29211;DHT22;16250;49.932;10.980;2022-11-20T12:27:32;2.20;99.90
29211;DHT22;16250;49.932;10.980;2022-11-20T12:30:27;2.30;99.90
29211;DHT22;16250;49.932;10.980;2022-11-20T12:41:43;2.10;99.90
29211;DHT22;16250;49.932;10.980;2022-11-20T12:53:05;2.00;99.90
29211;DHT22;16250;49.932;10.980;2022-11-20T13:01:45;1.90;99.90
29211;DHT22;16250;49.932;10.980;2022-11-20T13:07:06;1.80;99.90
29211;DHT22;16250;49.932;10.980;2022-11-20T13:09:39;1.70;99.90
29211;DHT22;16250;49.932;10.980;2022-11-20T13:14:47;1.90;99.90
29211;DHT22;16250;49.932;10.980;2022-11-20T13:17:37;1.90;99.90
29211;DHT22;16250;49.932;10.980;2022-11-20T13:20:06;1.80;99.90
29211;DHT22;16250;49.932;10.980;2022-11-20T13:22:46;1.90;99.90
29211;DHT22;16250;49.932;10.980;2022-11-20T13:25:32;1.90;99.90
29211;DHT22;16250;49.932;10.980;2022-11-20T13:28:01;1.80;99.90
29211;DHT22;16250;49.932;10.980;2022-11-20T13:30:29;1.90;99.90
29211;DHT22;16250;49.932;10.980;2022-11-20T13:33:07;1.80;99.90
29211;DHT22;16250;49.932;10.980;2022-11-20T13:35:37;1.70;99.90
29211;DHT22;16250;49.932;10.980;2022-11-20T13:38:10;1.70;99.90
29211;DHT22;16250;49.932;10.980;2022-11-20T13:40:38;1.70;99.90
29211;DHT22;16250;49.932;10.980;2022-11-20T13:43:15;1.70;99.90
29211;DHT22;16250;49.932;10.980;2022-11-20T13:45:41;1.80;99.90
29211;DHT22;16250;49.932;10.980;2022-11-20T13:48:26;1.70;99.90
29211;DHT22;16250;49.932;10.980;2022-11-20T13:51:04;1.70;99.90
29211;DHT22;16250;49.932;10.980;2022-11-20T13:56:38;1.80;99.90
29211;DHT22;16250;49.932;10.980;2022-11-20T14:01:56;1.80;99.90
29211;DHT22;16250;49.932;10.980;2022-11-20T14:04:28;1.80;99.90
29211;DHT22;16250;49.932;10.980;2022-11-20T14:06:55;1.80;99.90
29211;DHT22;16250;49.932;10.980;2022-11-20T14:09:51;1.80;99.90
29211;DHT22;16250;49.932;10.980;2022-11-20T14:12:20;1.80;99.90
29211;DHT22;16250;49.932;10.980;2022-11-20T14:14:51;1.90;99.90
29211;DHT22;16250;49.932;10.980;2022-11-20T14:17:35;1.90;99.90
29211;DHT22;16250;49.932;10.980;2022-11-20T14:20:12;1.90;99.90
29211;DHT22;16250;49.932;10.980;2022-11-20T14:22:39;1.90;99.90
29211;DHT22;16250;49.932;10.980;2022-11-20T14:27:41;1.90;99.90
29211;DHT22;16250;49.932;10.980;2022-11-20T14:30:14;1.90;99.90
29211;DHT22;16250;49.932;10.980;2022-11-20T14:32:42;1.90;99.90
29211;DHT22;16250;49.932;10.980;2022-11-20T14:35:10;1.80;99.90
29211;DHT22;16250;49.932;10.980;2022-11-20T14:37:38;1.80;99.90
29211;DHT22;16250;49.932;10.980;2022-11-20T14:40:26;1.70;99.90
29211;DHT22;16250;49.932;10.980;2022-11-20T14:42:52;1.70;99.90
29211;DHT22;16250;49.932;10.980;2022-11-20T14:45:18;1.70;99.90
29211;DHT22;16250;49.932;10.980;2022-11-20T14:47:44;1.70;99.90
29211;DHT22;16250;49.932;10.980;2022-11-20T14:50:22;1.70;99.90
29211;DHT22;16250;49.932;10.980;2022-11-20T14:53:06;1.70;99.90
29211;DHT22;16250;49.932;10.980;2022-11-20T14:55:37;1.80;99.90
29211;DHT22;16250;49.932;10.980;2022-11-20T14:58:24;1.80;99.90
29211;DHT22;16250;49.932;10.980;2022-11-20T15:00:56;1.80;99.90
29211;DHT22;16250;49.932;10.980;2022-11-20T15:03:22;1.90;99.90
29211;DHT22;16250;49.932;10.980;2022-11-20T15:05:49;1.90;99.90
29211;DHT22;16250;49.932;10.980;2022-11-20T15:08:16;1.80;99.90
29211;DHT22;16250;49.932;10.980;2022-11-20T15:10:46;1.80;99.90
29211;DHT22;16250;49.932;10.980;2022-11-20T15:13:22;1.80;99.90
29211;DHT22;16250;49.932;10.980;2022-11-20T15:15:50;1.70;99.90
29211;DHT22;16250;49.932;10.980;2022-11-20T15:18:19;1.70;99.90
29211;DHT22;16250;49.932;10.980;2022-11-20T15:20:47;1.60;99.90
29211;DHT22;16250;49.932;10.980;2022-11-20T15:23:14;1.70;99.90
29211;DHT22;16250;49.932;10.980;2022-11-20T15:25:41;1.80;99.90
29211;DHT22;16250;49.932;10.980;2022-11-20T15:30:41;1.80;99.90
29211;DHT22;16250;49.932;10.980;2022-11-20T15:33:08;1.80;99.90
29211;DHT22;16250;49.932;10.980;2022-11-20T15:35:34;1.90;99.90
29211;DHT22;16250;49.932;10.980;2022-11-20T15:38:00;1.90;99.90
29211;DHT22;16250;49.932;10.980;2022-11-20T15:40:26;2.00;99.90
29211;DHT22;16250;49.932;10.980;2022-11-20T15:42:51;1.90;99.90
29211;DHT22;16250;49.932;10.980;2022-11-20T15:45:43;1.80;99.90
29211;DHT22;16250;49.932;10.980;2022-11-20T15:48:18;1.70;99.90
29211;DHT22;16250;49.932;10.980;2022-11-20T15:50:54;1.70;99.90
29211;DHT22;16250;49.932;10.980;2022-11-20T15:53:22;1.70;99.90
29211;DHT22;16250;49.932;10.980;2022-11-20T15:55:48;1.70;99.90
29211;DHT22;16250;49.932;10.980;2022-11-20T15:58:13;1.60;99.90
29211;DHT22;16250;49.932;10.980;2022-11-20T16:00:39;1.70;99.90
29211;DHT22;16250;49.932;10.980;2022-11-20T16:03:05;1.70;99.90
29211;DHT22;16250;49.932;10.980;2022-11-20T16:05:30;1.70;99.90
29211;DHT22;16250;49.932;10.980;2022-11-20T16:07:56;1.70;99.90
29211;DHT22;16250;49.932;10.980;2022-11-20T16:10:22;1.80;99.90
29211;DHT22;16250;49.932;10.980;2022-11-20T16:12:49;1.80;99.90
29211;DHT22;16250;49.932;10.980;2022-11-20T16:15:33;1.80;99.90
29211;DHT22;16250;49.932;10.980;2022-11-20T16:18:20;1.80;99.90
29211;DHT22;16250;49.932;10.980;2022-11-20T16:20:48;1.80;99.90
29211;DHT22;16250;49.932;10.980;2022-11-20T16:23:14;1.80;99.90
29211;DHT22;16250;49.932;10.980;2022-11-20T16:25:41;1.80;99.90
29211;DHT22;16250;49.932;10.980;2022-11-20T16:28:06;1.70;99.90
29211;DHT22;16250;49.932;10.980;2022-11-20T16:30:32;1.80;99.90
29211;DHT22;16250;49.932;10.980;2022-11-20T16:32:59;1.80;99.90
29211;DHT22;16250;49.932;10.980;2022-11-20T16:35:28;1.80;99.90
29211;DHT22;16250;49.932;10.980;2022-11-20T16:37:55;1.70;99.90
29211;DHT22;16250;49.932;10.980;2022-11-20T16:40:21;1.70;99.90
29211;DHT22;16250;49.932;10.980;2022-11-20T16:42:47;1.70;99.90
29211;DHT22;16250;49.932;10.980;2022-11-20T16:45:12;1.80;99.90
29211;DHT22;16250;49.932;10.980;2022-11-20T16:47:38;1.80;99.90
29211;DHT22;16250;49.932;10.980;2022-11-20T16:50:05;1.70;99.90
29211;DHT22;16250;49.932;10.980;2022-11-20T16:52:31;1.70;99.90
29211;DHT22;16250;49.932;10.980;2022-11-20T16:54:57;1.70;99.90
29211;DHT22;16250;49.932;10.980;2022-11-20T16:57:23;1.80;99.90
29211;DHT22;16250;49.932;10.980;2022-11-20T16:59:48;1.80;99.90
29211;DHT22;16250;49.932;10.980;2022-11-20T17:02:14;1.90;99.90
29211;DHT22;16250;49.932;10.980;2022-11-20T17:04:40;1.80;99.90